sensor_id;sensor_type;location;lat;lon;timestamp;pressure;altitude;pressure_sealevel;temperature;humidity
69909;BME280;57190;47.918;8.112;2023-12-04T00:01:16;90605.50;;;-5.71;70.36
69909;BME280;57190;47.918;8.112;2023-12-04T00:03:42;90614.81;;;-5.76;70.98
69909;BME280;57190;47.918;8.112;2023-12-04T00:06:10;90605.22;;;-5.76;71.33
69909;BME280;57190;47.918;8.112;2023-12-04T00:08:37;90608.50;;;-5.82;71.55
69909;BME280;57190;47.918;8.112;2023-12-04T00:11:04;90608.06;;;-5.86;71.48
69909;BME280;57190;47.918;8.112;2023-12-04T00:13:30;90598.72;;;-5.95;71.78
69909;BME280;57190;47.918;8.112;2023-12-04T00:15:55;90590.41;;;-6.05;71.00
69909;BME280;57190;47.918;8.112;2023-12-04T00:18:21;90582.13;;;-6.24;71.98
69909;BME280;57190;47.918;8.112;2023-12-04T00:20:46;90577.97;;;-6.33;71.91
69909;BME280;57190;47.918;8.112;2023-12-04T00:23:12;90577.31;;;-6.35;72.54
69909;BME280;57190;47.918;8.112;2023-12-04T00:25:38;90578.66;;;-6.39;72.55
69909;BME280;57190;47.918;8.112;2023-12-04T00:28:03;90568.91;;;-6.37;73.35
69909;BME280;57190;47.918;8.112;2023-12-04T00:30:29;90574.78;;;-6.43;72.11
69909;BME280;57190;47.918;8.112;2023-12-04T00:32:55;90561.69;;;-6.50;73.75
69909;BME280;57190;47.918;8.112;2023-12-04T00:35:20;90569.13;;;-6.47;72.19
69909;BME280;57190;47.918;8.112;2023-12-04T00:37:46;90572.44;;;-6.53;73.44
69909;BME280;57190;47.918;8.112;2023-12-04T00:40:12;90561.41;;;-6.55;73.97
69909;BME280;57190;47.918;8.112;2023-12-04T00:42:37;90565.34;;;-6.59;73.32
69909;BME280;57190;47.918;8.112;2023-12-04T00:45:06;90561.66;;;-6.65;73.08
69909;BME280;57190;47.918;8.112;2023-12-04T00:47:32;90555.22;;;-6.77;72.85
69909;BME280;57190;47.918;8.112;2023-12-04T00:49:58;90570.31;;;-6.81;73.50
69909;BME280;57190;47.918;8.112;2023-12-04T00:52:23;90556.19;;;-6.79;72.74
69909;BME280;57190;47.918;8.112;2023-12-04T00:54:49;90553.56;;;-6.70;72.74
69909;BME280;57190;47.918;8.112;2023-12-04T00:57:14;90546.88;;;-6.65;73.91
69909;BME280;57190;47.918;8.112;2023-12-04T00:59:40;90543.03;;;-6.69;72.76
69909;BME280;57190;47.918;8.112;2023-12-04T01:02:07;90540.06;;;-6.66;73.08
69909;BME280;57190;47.918;8.112;2023-12-04T01:04:33;90530.00;;;-6.60;74.32
69909;BME280;57190;47.918;8.112;2023-12-04T01:06:58;90528.44;;;-6.46;73.85
69909;BME280;57190;47.918;8.112;2023-12-04T01:09:24;90521.00;;;-6.50;73.19
69909;BME280;57190;47.918;8.112;2023-12-04T01:11:52;90528.31;;;-6.53;73.84
69909;BME280;57190;47.918;8.112;2023-12-04T01:14:18;90535.28;;;-6.54;73.25
69909;BME280;57190;47.918;8.112;2023-12-04T01:16:44;90533.25;;;-6.67;72.55
69909;BME280;57190;47.918;8.112;2023-12-04T01:19:09;90537.91;;;-6.77;73.22
69909;BME280;57190;47.918;8.112;2023-12-04T01:21:35;90536.16;;;-6.85;72.52
69909;BME280;57190;47.918;8.112;2023-12-04T01:24:01;90533.72;;;-6.86;72.85
69909;BME280;57190;47.918;8.112;2023-12-04T01:26:26;90529.69;;;-6.89;71.91
69909;BME280;57190;47.918;8.112;2023-12-04T01:28:52;90531.13;;;-6.86;72.41
69909;BME280;57190;47.918;8.112;2023-12-04T01:31:18;90532.75;;;-6.85;73.09
69909;BME280;57190;47.918;8.112;2023-12-04T01:33:43;90523.41;;;-6.95;71.85
69909;BME280;57190;47.918;8.112;2023-12-04T01:36:09;90522.06;;;-6.90;73.39
69909;BME280;57190;47.918;8.112;2023-12-04T01:38:37;90517.19;;;-6.85;73.08
69909;BME280;57190;47.918;8.112;2023-12-04T01:41:02;90512.03;;;-6.70;73.51
69909;BME280;57190;47.918;8.112;2023-12-04T01:43:28;90515.22;;;-6.37;74.08
69909;BME280;57190;47.918;8.112;2023-12-04T01:45:54;90506.38;;;-6.27;73.27
69909;BME280;57190;47.918;8.112;2023-12-04T01:48:20;90499.31;;;-6.19;72.63
69909;BME280;57190;47.918;8.112;2023-12-04T01:50:46;90499.88;;;-6.08;73.19
69909;BME280;57190;47.918;8.112;2023-12-04T01:53:12;90502.13;;;-6.05;73.74
69909;BME280;57190;47.918;8.112;2023-12-04T01:55:38;90495.31;;;-6.06;73.13
69909;BME280;57190;47.918;8.112;2023-12-04T01:58:04;90493.31;;;-5.89;73.75
69909;BME280;57190;47.918;8.112;2023-12-04T02:00:31;90490.56;;;-5.88;72.89
69909;BME280;57190;47.918;8.112;2023-12-04T02:02:57;90489.09;;;-5.90;73.42
69909;BME280;57190;47.918;8.112;2023-12-04T02:05:24;90489.19;;;-5.84;74.09
69909;BME280;57190;47.918;8.112;2023-12-04T02:07:49;90481.06;;;-5.80;73.83
69909;BME280;57190;47.918;8.112;2023-12-04T02:10:15;90486.69;;;-5.92;73.96
69909;BME280;57190;47.918;8.112;2023-12-04T02:12:41;90481.59;;;-5.85;74.88
69909;BME280;57190;47.918;8.112;2023-12-04T02:15:07;90476.47;;;-5.78;74.89
69909;BME280;57190;47.918;8.112;2023-12-04T02:17:34;90471.44;;;-5.80;74.73
69909;BME280;57190;47.918;8.112;2023-12-04T02:20:00;90469.59;;;-5.86;74.64
69909;BME280;57190;47.918;8.112;2023-12-04T02:22:25;90470.41;;;-6.01;74.68
69909;BME280;57190;47.918;8.112;2023-12-04T02:24:51;90465.13;;;-6.07;74.54
69909;BME280;57190;47.918;8.112;2023-12-04T02:27:26;90465.22;;;-6.16;74.84
69909;BME280;57190;47.918;8.112;2023-12-04T02:29:56;90463.78;;;-6.18;74.30
69909;BME280;57190;47.918;8.112;2023-12-04T02:32:23;90464.56;;;-6.18;73.92
69909;BME280;57190;47.918;8.112;2023-12-04T02:34:50;90459.53;;;-6.34;73.19
69909;BME280;57190;47.918;8.112;2023-12-04T02:37:17;90454.69;;;-6.52;73.04
69909;BME280;57190;47.918;8.112;2023-12-04T02:39:44;90459.03;;;-6.68;73.28
69909;BME280;57190;47.918;8.112;2023-12-04T02:42:12;90456.88;;;-6.64;73.27
69909;BME280;57190;47.918;8.112;2023-12-04T02:44:39;90452.44;;;-6.55;73.83
69909;BME280;57190;47.918;8.112;2023-12-04T02:47:04;90451.09;;;-6.51;74.66
69909;BME280;57190;47.918;8.112;2023-12-04T02:49:30;90444.59;;;-6.32;74.70
69909;BME280;57190;47.918;8.112;2023-12-04T02:51:56;90446.41;;;-6.18;73.98
69909;BME280;57190;47.918;8.112;2023-12-04T02:54:22;90442.47;;;-6.13;74.35
69909;BME280;57190;47.918;8.112;2023-12-04T02:56:48;90439.78;;;-6.05;74.69
69909;BME280;57190;47.918;8.112;2023-12-04T02:59:17;90443.84;;;-5.81;74.20
69909;BME280;57190;47.918;8.112;2023-12-04T03:01:42;90439.91;;;-5.62;74.06
69909;BME280;57190;47.918;8.112;2023-12-04T03:04:08;90438.31;;;-5.63;73.31
69909;BME280;57190;47.918;8.112;2023-12-04T03:06:34;90431.75;;;-5.74;73.43
69909;BME280;57190;47.918;8.112;2023-12-04T03:08:59;90423.97;;;-5.74;74.39
69909;BME280;57190;47.918;8.112;2023-12-04T03:11:25;90432.63;;;-5.66;74.47
69909;BME280;57190;47.918;8.112;2023-12-04T03:13:51;90424.59;;;-5.57;74.77
69909;BME280;57190;47.918;8.112;2023-12-04T03:16:17;90428.31;;;-5.44;74.53
69909;BME280;57190;47.918;8.112;2023-12-04T03:18:43;90418.06;;;-5.31;74.27
69909;BME280;57190;47.918;8.112;2023-12-04T03:21:09;90421.53;;;-5.24;73.78
69909;BME280;57190;47.918;8.112;2023-12-04T03:23:35;90417.03;;;-5.15;74.07
69909;BME280;57190;47.918;8.112;2023-12-04T03:26:00;90404.28;;;-5.10;73.61
69909;BME280;57190;47.918;8.112;2023-12-04T03:28:26;90408.38;;;-5.00;73.14
69909;BME280;57190;47.918;8.112;2023-12-04T03:30:51;90403.59;;;-4.97;73.15
69909;BME280;57190;47.918;8.112;2023-12-04T03:33:17;90408.00;;;-4.97;73.02
69909;BME280;57190;47.918;8.112;2023-12-04T03:35:43;90408.19;;;-4.99;73.25
69909;BME280;57190;47.918;8.112;2023-12-04T03:38:09;90410.47;;;-4.89;72.87
69909;BME280;57190;47.918;8.112;2023-12-04T03:40:35;90404.84;;;-4.93;73.36
69909;BME280;57190;47.918;8.112;2023-12-04T03:43:01;90390.84;;;-4.92;72.80
69909;BME280;57190;47.918;8.112;2023-12-04T03:45:26;90395.84;;;-5.12;72.11
69909;BME280;57190;47.918;8.112;2023-12-04T03:47:52;90385.94;;;-5.23;73.82
69909;BME280;57190;47.918;8.112;2023-12-04T03:50:18;90380.75;;;-5.01;73.61
69909;BME280;57190;47.918;8.112;2023-12-04T03:52:43;90379.94;;;-4.80;72.80
69909;BME280;57190;47.918;8.112;2023-12-04T03:55:09;90380.22;;;-4.68;73.06
69909;BME280;57190;47.918;8.112;2023-12-04T03:57:35;90378.31;;;-4.81;72.33
69909;BME280;57190;47.918;8.112;2023-12-04T04:00:00;90380.78;;;-4.95;73.59
69909;BME280;57190;47.918;8.112;2023-12-04T04:02:27;90386.25;;;-5.11;73.83
69909;BME280;57190;47.918;8.112;2023-12-04T04:04:53;90379.38;;;-5.19;74.29
69909;BME280;57190;47.918;8.112;2023-12-04T04:07:19;90383.00;;;-5.35;75.00
69909;BME280;57190;47.918;8.112;2023-12-04T04:09:44;90384.63;;;-5.34;75.30
69909;BME280;57190;47.918;8.112;2023-12-04T04:12:10;90381.41;;;-5.36;75.04
69909;BME280;57190;47.918;8.112;2023-12-04T04:14:37;90379.63;;;-5.35;74.83
69909;BME280;57190;47.918;8.112;2023-12-04T04:17:02;90378.09;;;-5.30;74.71
69909;BME280;57190;47.918;8.112;2023-12-04T04:19:28;90385.81;;;-5.37;74.84
69909;BME280;57190;47.918;8.112;2023-12-04T04:21:54;90381.59;;;-5.38;75.61
69909;BME280;57190;47.918;8.112;2023-12-04T04:24:20;90379.50;;;-5.27;75.66
69909;BME280;57190;47.918;8.112;2023-12-04T04:26:46;90383.53;;;-5.25;75.51
69909;BME280;57190;47.918;8.112;2023-12-04T04:29:11;90376.47;;;-5.31;75.97
69909;BME280;57190;47.918;8.112;2023-12-04T04:31:37;90372.56;;;-5.42;75.64
69909;BME280;57190;47.918;8.112;2023-12-04T04:34:02;90368.16;;;-5.41;75.99
69909;BME280;57190;47.918;8.112;2023-12-04T04:36:28;90365.63;;;-5.34;74.98
69909;BME280;57190;47.918;8.112;2023-12-04T04:38:54;90370.97;;;-5.43;75.16
69909;BME280;57190;47.918;8.112;2023-12-04T04:41:20;90366.22;;;-5.32;75.81
69909;BME280;57190;47.918;8.112;2023-12-04T04:43:45;90362.38;;;-5.22;76.40
69909;BME280;57190;47.918;8.112;2023-12-04T04:46:11;90363.84;;;-5.12;76.21
69909;BME280;57190;47.918;8.112;2023-12-04T04:48:37;90362.25;;;-5.13;75.89
69909;BME280;57190;47.918;8.112;2023-12-04T04:51:03;90359.69;;;-5.28;75.91
69909;BME280;57190;47.918;8.112;2023-12-04T04:53:28;90366.94;;;-5.24;75.75
69909;BME280;57190;47.918;8.112;2023-12-04T04:55:54;90364.91;;;-5.28;75.86
69909;BME280;57190;47.918;8.112;2023-12-04T04:58:20;90362.53;;;-5.23;75.77
69909;BME280;57190;47.918;8.112;2023-12-04T05:00:46;90363.59;;;-5.17;75.94
69909;BME280;57190;47.918;8.112;2023-12-04T05:03:12;90359.22;;;-5.17;76.77
69909;BME280;57190;47.918;8.112;2023-12-04T05:05:38;90358.06;;;-5.08;76.55
69909;BME280;57190;47.918;8.112;2023-12-04T05:08:03;90349.97;;;-4.98;76.91
69909;BME280;57190;47.918;8.112;2023-12-04T05:10:29;90348.03;;;-4.89;76.50
69909;BME280;57190;47.918;8.112;2023-12-04T05:12:55;90349.41;;;-4.93;76.04
69909;BME280;57190;47.918;8.112;2023-12-04T05:15:21;90345.69;;;-5.06;75.91
69909;BME280;57190;47.918;8.112;2023-12-04T05:17:46;90336.41;;;-5.15;75.90
69909;BME280;57190;47.918;8.112;2023-12-04T05:20:12;90342.34;;;-5.21;76.46
69909;BME280;57190;47.918;8.112;2023-12-04T05:22:39;90337.03;;;-5.13;76.21
69909;BME280;57190;47.918;8.112;2023-12-04T05:25:05;90333.50;;;-5.05;76.59
69909;BME280;57190;47.918;8.112;2023-12-04T05:27:31;90339.28;;;-5.03;76.27
69909;BME280;57190;47.918;8.112;2023-12-04T05:29:57;90340.19;;;-4.96;77.30
69909;BME280;57190;47.918;8.112;2023-12-04T05:32:22;90342.69;;;-4.81;77.35
69909;BME280;57190;47.918;8.112;2023-12-04T05:34:48;90345.16;;;-4.72;76.88
69909;BME280;57190;47.918;8.112;2023-12-04T05:37:14;90341.63;;;-4.65;76.69
69909;BME280;57190;47.918;8.112;2023-12-04T05:39:41;90333.59;;;-4.63;77.24
69909;BME280;57190;47.918;8.112;2023-12-04T05:42:07;90317.81;;;-4.62;76.92
69909;BME280;57190;47.918;8.112;2023-12-04T05:44:33;90323.97;;;-4.69;77.23
69909;BME280;57190;47.918;8.112;2023-12-04T05:46:59;90317.16;;;-4.70;76.42
69909;BME280;57190;47.918;8.112;2023-12-04T05:49:25;90322.56;;;-4.65;77.12
69909;BME280;57190;47.918;8.112;2023-12-04T05:51:50;90322.19;;;-4.62;77.33
69909;BME280;57190;47.918;8.112;2023-12-04T05:54:16;90301.22;;;-4.54;77.71
69909;BME280;57190;47.918;8.112;2023-12-04T05:56:42;90308.84;;;-4.52;76.86
69909;BME280;57190;47.918;8.112;2023-12-04T05:59:08;90301.59;;;-4.64;76.84
69909;BME280;57190;47.918;8.112;2023-12-04T06:01:33;90294.75;;;-4.65;77.22
69909;BME280;57190;47.918;8.112;2023-12-04T06:04:05;90287.22;;;-4.53;77.20
69909;BME280;57190;47.918;8.112;2023-12-04T06:06:31;90294.88;;;-4.45;77.84
69909;BME280;57190;47.918;8.112;2023-12-04T06:08:56;90282.38;;;-4.63;76.03
69909;BME280;57190;47.918;8.112;2023-12-04T06:11:22;90288.38;;;-4.91;74.79
69909;BME280;57190;47.918;8.112;2023-12-04T06:13:47;90281.91;;;-5.23;74.95
69909;BME280;57190;47.918;8.112;2023-12-04T06:16:13;90275.50;;;-5.27;75.86
69909;BME280;57190;47.918;8.112;2023-12-04T06:18:39;90282.19;;;-5.18;76.19
69909;BME280;57190;47.918;8.112;2023-12-04T06:21:04;90273.13;;;-5.00;76.33
69909;BME280;57190;47.918;8.112;2023-12-04T06:23:31;90292.19;;;-4.86;77.00
69909;BME280;57190;47.918;8.112;2023-12-04T06:25:58;90282.31;;;-4.69;77.12
69909;BME280;57190;47.918;8.112;2023-12-04T06:28:24;90279.28;;;-4.73;76.71
69909;BME280;57190;47.918;8.112;2023-12-04T06:30:50;90284.16;;;-4.63;76.75
69909;BME280;57190;47.918;8.112;2023-12-04T06:33:16;90281.25;;;-4.47;76.38
69909;BME280;57190;47.918;8.112;2023-12-04T06:35:44;90287.13;;;-4.38;76.42
69909;BME280;57190;47.918;8.112;2023-12-04T06:38:14;90283.53;;;-4.37;76.61
69909;BME280;57190;47.918;8.112;2023-12-04T06:40:40;90293.34;;;-4.32;75.79
69909;BME280;57190;47.918;8.112;2023-12-04T06:43:06;90294.19;;;-4.25;76.08
69909;BME280;57190;47.918;8.112;2023-12-04T06:45:32;90289.00;;;-4.18;76.14
69909;BME280;57190;47.918;8.112;2023-12-04T06:47:59;90289.03;;;-4.12;76.66
69909;BME280;57190;47.918;8.112;2023-12-04T06:50:25;90296.84;;;-4.12;76.69
69909;BME280;57190;47.918;8.112;2023-12-04T06:52:51;90307.47;;;-4.06;76.60
69909;BME280;57190;47.918;8.112;2023-12-04T06:55:17;90298.91;;;-4.00;75.82
69909;BME280;57190;47.918;8.112;2023-12-04T06:57:42;90297.06;;;-4.06;76.54
69909;BME280;57190;47.918;8.112;2023-12-04T07:00:08;90301.28;;;-4.05;76.68
69909;BME280;57190;47.918;8.112;2023-12-04T07:02:38;90289.47;;;-4.01;76.69
69909;BME280;57190;47.918;8.112;2023-12-04T07:05:04;90294.13;;;-3.97;76.29
69909;BME280;57190;47.918;8.112;2023-12-04T07:07:30;90294.97;;;-3.76;77.18
69909;BME280;57190;47.918;8.112;2023-12-04T07:09:55;90291.44;;;-3.61;76.07
69909;BME280;57190;47.918;8.112;2023-12-04T07:12:21;90293.84;;;-3.53;76.02
69909;BME280;57190;47.918;8.112;2023-12-04T07:14:47;90274.78;;;-3.54;76.46
69909;BME280;57190;47.918;8.112;2023-12-04T07:17:12;90273.38;;;-3.56;76.38
69909;BME280;57190;47.918;8.112;2023-12-04T07:19:41;90271.94;;;-3.66;76.32
69909;BME280;57190;47.918;8.112;2023-12-04T07:22:07;90282.59;;;-3.67;78.00
69909;BME280;57190;47.918;8.112;2023-12-04T07:24:33;90273.75;;;-3.73;76.48
69909;BME280;57190;47.918;8.112;2023-12-04T07:26:58;90260.28;;;-3.83;76.77
69909;BME280;57190;47.918;8.112;2023-12-04T07:29:24;90265.91;;;-3.80;76.77
69909;BME280;57190;47.918;8.112;2023-12-04T07:31:50;90255.47;;;-3.86;77.61
69909;BME280;57190;47.918;8.112;2023-12-04T07:34:15;90255.25;;;-3.85;77.60
69909;BME280;57190;47.918;8.112;2023-12-04T07:36:41;90261.31;;;-3.64;77.67
69909;BME280;57190;47.918;8.112;2023-12-04T07:39:06;90253.72;;;-3.52;78.22
69909;BME280;57190;47.918;8.112;2023-12-04T07:41:32;90264.78;;;-3.43;77.97
69909;BME280;57190;47.918;8.112;2023-12-04T07:43:58;90255.13;;;-3.43;78.61
69909;BME280;57190;47.918;8.112;2023-12-04T07:46:24;90248.13;;;-3.36;77.40
69909;BME280;57190;47.918;8.112;2023-12-04T07:48:51;90248.53;;;-3.39;77.40
69909;BME280;57190;47.918;8.112;2023-12-04T07:51:16;90245.72;;;-3.44;77.08
69909;BME280;57190;47.918;8.112;2023-12-04T07:53:42;90246.50;;;-3.50;77.78
69909;BME280;57190;47.918;8.112;2023-12-04T07:56:08;90244.53;;;-3.41;77.58
69909;BME280;57190;47.918;8.112;2023-12-04T07:58:34;90256.13;;;-3.44;76.88
69909;BME280;57190;47.918;8.112;2023-12-04T08:01:00;90259.13;;;-3.54;76.26
69909;BME280;57190;47.918;8.112;2023-12-04T08:03:25;90244.50;;;-3.61;76.48
69909;BME280;57190;47.918;8.112;2023-12-04T08:05:51;90234.88;;;-3.54;76.59
69909;BME280;57190;47.918;8.112;2023-12-04T08:08:17;90232.28;;;-3.41;75.94
69909;BME280;57190;47.918;8.112;2023-12-04T08:10:43;90234.47;;;-3.31;76.46
69909;BME280;57190;47.918;8.112;2023-12-04T08:13:08;90231.69;;;-3.29;76.58
69909;BME280;57190;47.918;8.112;2023-12-04T08:15:34;90229.47;;;-3.12;76.98
69909;BME280;57190;47.918;8.112;2023-12-04T08:17:59;90234.72;;;-2.99;76.79
69909;BME280;57190;47.918;8.112;2023-12-04T08:20:26;90231.69;;;-2.89;76.50
69909;BME280;57190;47.918;8.112;2023-12-04T08:22:52;90247.13;;;-2.88;76.97
69909;BME280;57190;47.918;8.112;2023-12-04T08:25:17;90258.97;;;-2.78;77.16
69909;BME280;57190;47.918;8.112;2023-12-04T08:27:43;90274.03;;;-2.67;77.36
69909;BME280;57190;47.918;8.112;2023-12-04T08:30:09;90275.00;;;-2.55;76.32
69909;BME280;57190;47.918;8.112;2023-12-04T08:32:35;90277.84;;;-2.56;76.77
69909;BME280;57190;47.918;8.112;2023-12-04T08:35:00;90292.50;;;-2.48;76.72
69909;BME280;57190;47.918;8.112;2023-12-04T08:37:26;90301.31;;;-2.36;77.04
69909;BME280;57190;47.918;8.112;2023-12-04T08:39:51;90306.94;;;-2.26;76.65
69909;BME280;57190;47.918;8.112;2023-12-04T08:42:18;90305.31;;;-2.27;75.85
69909;BME280;57190;47.918;8.112;2023-12-04T08:44:44;90311.97;;;-2.31;76.42
69909;BME280;57190;47.918;8.112;2023-12-04T08:47:12;90313.56;;;-2.23;76.48
69909;BME280;57190;47.918;8.112;2023-12-04T08:49:39;90316.56;;;-2.13;76.74
69909;BME280;57190;47.918;8.112;2023-12-04T08:52:06;90312.50;;;-1.95;76.78
69909;BME280;57190;47.918;8.112;2023-12-04T08:54:33;90314.06;;;-1.87;77.57
69909;BME280;57190;47.918;8.112;2023-12-04T08:56:59;90308.78;;;-1.74;76.89
69909;BME280;57190;47.918;8.112;2023-12-04T08:59:24;90291.03;;;-1.59;77.42
69909;BME280;57190;47.918;8.112;2023-12-04T09:01:50;90294.16;;;-1.43;77.52
69909;BME280;57190;47.918;8.112;2023-12-04T09:04:16;90286.66;;;-1.33;77.37
69909;BME280;57190;47.918;8.112;2023-12-04T09:06:41;90277.50;;;-1.17;78.03
69909;BME280;57190;47.918;8.112;2023-12-04T09:09:07;90274.19;;;-0.99;77.22
69909;BME280;57190;47.918;8.112;2023-12-04T09:11:33;90270.56;;;-0.98;78.04
69909;BME280;57190;47.918;8.112;2023-12-04T09:13:58;90272.09;;;-0.90;78.22
69909;BME280;57190;47.918;8.112;2023-12-04T09:16:24;90269.47;;;-0.90;77.82
69909;BME280;57190;47.918;8.112;2023-12-04T09:18:50;90270.66;;;-0.86;78.24
69909;BME280;57190;47.918;8.112;2023-12-04T09:21:15;90265.94;;;-0.77;78.81
69909;BME280;57190;47.918;8.112;2023-12-04T09:23:42;90270.22;;;-0.57;78.75
69909;BME280;57190;47.918;8.112;2023-12-04T09:26:07;90273.53;;;-0.43;78.83
69909;BME280;57190;47.918;8.112;2023-12-04T09:28:35;90264.03;;;-0.19;78.69
69909;BME280;57190;47.918;8.112;2023-12-04T09:31:01;90258.56;;;0.20;77.44
69909;BME280;57190;47.918;8.112;2023-12-04T09:33:27;90269.47;;;0.35;77.34
69909;BME280;57190;47.918;8.112;2023-12-04T09:35:53;90266.84;;;0.54;77.21
69909;BME280;57190;47.918;8.112;2023-12-04T09:38:18;90270.22;;;0.73;76.60
69909;BME280;57190;47.918;8.112;2023-12-04T09:40:44;90264.75;;;0.74;76.25
69909;BME280;57190;47.918;8.112;2023-12-04T09:43:09;90274.91;;;0.71;76.27
69909;BME280;57190;47.918;8.112;2023-12-04T09:45:36;90266.00;;;0.72;76.58
69909;BME280;57190;47.918;8.112;2023-12-04T09:48:05;90256.53;;;0.71;76.18
69909;BME280;57190;47.918;8.112;2023-12-04T09:50:31;90251.84;;;0.73;76.39
69909;BME280;57190;47.918;8.112;2023-12-04T09:53:00;90251.44;;;0.88;76.12
69909;BME280;57190;47.918;8.112;2023-12-04T09:55:27;90243.25;;;0.96;75.83
69909;BME280;57190;47.918;8.112;2023-12-04T09:57:54;90247.25;;;0.99;75.51
69909;BME280;57190;47.918;8.112;2023-12-04T10:00:21;90237.31;;;1.01;75.28
69909;BME280;57190;47.918;8.112;2023-12-04T10:02:47;90228.06;;;0.98;75.06
69909;BME280;57190;47.918;8.112;2023-12-04T10:05:13;90243.41;;;1.13;74.19
69909;BME280;57190;47.918;8.112;2023-12-04T10:07:38;90244.22;;;1.37;73.40
69909;BME280;57190;47.918;8.112;2023-12-04T10:10:05;90243.69;;;1.59;72.71
69909;BME280;57190;47.918;8.112;2023-12-04T10:12:32;90238.44;;;1.71;71.68
69909;BME280;57190;47.918;8.112;2023-12-04T10:15:03;90230.63;;;1.88;71.23
69909;BME280;57190;47.918;8.112;2023-12-04T10:17:36;90220.91;;;2.12;70.31
69909;BME280;57190;47.918;8.112;2023-12-04T10:22:36;90226.34;;;2.34;69.72
69909;BME280;57190;47.918;8.112;2023-12-04T10:25:16;90218.81;;;2.14;70.40
69909;BME280;57190;47.918;8.112;2023-12-04T10:27:44;90219.84;;;2.25;70.57
69909;BME280;57190;47.918;8.112;2023-12-04T10:30:10;90214.75;;;2.47;70.31
69909;BME280;57190;47.918;8.112;2023-12-04T10:32:40;90205.53;;;2.62;70.54
69909;BME280;57190;47.918;8.112;2023-12-04T10:35:07;90192.13;;;2.63;70.82
69909;BME280;57190;47.918;8.112;2023-12-04T10:37:38;90192.09;;;2.46;70.25
69909;BME280;57190;47.918;8.112;2023-12-04T10:40:05;90180.22;;;2.32;71.54
69909;BME280;57190;47.918;8.112;2023-12-04T10:42:34;90181.97;;;2.14;72.04
69909;BME280;57190;47.918;8.112;2023-12-04T10:45:00;90179.25;;;2.09;71.90
69909;BME280;57190;47.918;8.112;2023-12-04T10:47:28;90171.28;;;2.04;72.38
69909;BME280;57190;47.918;8.112;2023-12-04T10:49:54;90167.81;;;2.03;71.96
69909;BME280;57190;47.918;8.112;2023-12-04T10:52:20;90160.50;;;2.06;71.26
69909;BME280;57190;47.918;8.112;2023-12-04T10:54:47;90164.16;;;2.04;72.22
69909;BME280;57190;47.918;8.112;2023-12-04T10:57:47;90159.56;;;2.12;72.72
69909;BME280;57190;47.918;8.112;2023-12-04T11:00:08;90160.19;;;2.02;72.25
69909;BME280;57190;47.918;8.112;2023-12-04T11:02:38;90153.91;;;1.91;72.09
69909;BME280;57190;47.918;8.112;2023-12-04T11:05:14;90159.28;;;1.96;72.88
69909;BME280;57190;47.918;8.112;2023-12-04T11:07:44;90152.66;;;1.94;72.72
69909;BME280;57190;47.918;8.112;2023-12-04T11:10:12;90154.69;;;1.92;73.04
69909;BME280;57190;47.918;8.112;2023-12-04T11:12:40;90147.16;;;1.83;73.71
69909;BME280;57190;47.918;8.112;2023-12-04T11:15:09;90136.06;;;1.81;73.67
69909;BME280;57190;47.918;8.112;2023-12-04T11:17:38;90134.25;;;1.82;73.40
69909;BME280;57190;47.918;8.112;2023-12-04T11:20:08;90129.81;;;1.70;74.09
69909;BME280;57190;47.918;8.112;2023-12-04T11:22:37;90130.19;;;1.62;74.66
69909;BME280;57190;47.918;8.112;2023-12-04T11:25:06;90133.97;;;1.66;74.20
69909;BME280;57190;47.918;8.112;2023-12-04T11:27:34;90133.72;;;1.68;74.23
69909;BME280;57190;47.918;8.112;2023-12-04T11:30:00;90126.88;;;1.55;74.67
69909;BME280;57190;47.918;8.112;2023-12-04T11:32:28;90124.03;;;1.45;74.97
69909;BME280;57190;47.918;8.112;2023-12-04T11:34:56;90126.91;;;1.31;75.34
69909;BME280;57190;47.918;8.112;2023-12-04T11:37:25;90122.69;;;1.18;76.13
69909;BME280;57190;47.918;8.112;2023-12-04T11:39:51;90115.25;;;1.15;76.27
69909;BME280;57190;47.918;8.112;2023-12-04T11:42:22;90115.38;;;1.20;76.62
69909;BME280;57190;47.918;8.112;2023-12-04T11:44:49;90105.41;;;1.22;76.57
69909;BME280;57190;47.918;8.112;2023-12-04T11:47:15;90102.69;;;1.17;76.76
69909;BME280;57190;47.918;8.112;2023-12-04T11:49:41;90107.38;;;1.15;77.55
69909;BME280;57190;47.918;8.112;2023-12-04T11:52:07;90101.19;;;1.09;77.55
69909;BME280;57190;47.918;8.112;2023-12-04T11:55:00;90110.91;;;1.09;77.84
69909;BME280;57190;47.918;8.112;2023-12-04T11:57:40;90110.09;;;0.97;77.93
69909;BME280;57190;47.918;8.112;2023-12-04T12:00:12;90101.00;;;0.99;77.94
69909;BME280;57190;47.918;8.112;2023-12-04T12:05:19;90096.63;;;0.81;78.89
69909;BME280;57190;47.918;8.112;2023-12-04T12:07:45;90093.09;;;0.87;79.45
69909;BME280;57190;47.918;8.112;2023-12-04T12:10:11;90093.44;;;0.91;79.34
69909;BME280;57190;47.918;8.112;2023-12-04T12:12:42;90078.13;;;0.88;79.72
69909;BME280;57190;47.918;8.112;2023-12-04T12:15:11;90078.47;;;0.91;79.75
69909;BME280;57190;47.918;8.112;2023-12-04T12:17:38;90074.59;;;0.94;79.87
69909;BME280;57190;47.918;8.112;2023-12-04T12:20:08;90070.25;;;1.00;79.99
69909;BME280;57190;47.918;8.112;2023-12-04T12:22:35;90059.84;;;0.93;80.13
69909;BME280;57190;47.918;8.112;2023-12-04T12:25:03;90056.78;;;0.84;80.36
69909;BME280;57190;47.918;8.112;2023-12-04T12:27:30;90045.59;;;0.77;80.73
69909;BME280;57190;47.918;8.112;2023-12-04T12:29:56;90040.22;;;0.72;80.52
69909;BME280;57190;47.918;8.112;2023-12-04T12:32:22;90043.44;;;0.74;80.49
69909;BME280;57190;47.918;8.112;2023-12-04T12:34:47;90041.03;;;0.72;80.70
69909;BME280;57190;47.918;8.112;2023-12-04T12:37:13;90035.56;;;0.74;81.00
69909;BME280;57190;47.918;8.112;2023-12-04T12:39:39;90031.56;;;0.83;79.65
69909;BME280;57190;47.918;8.112;2023-12-04T12:42:05;90020.59;;;0.98;79.53
69909;BME280;57190;47.918;8.112;2023-12-04T12:44:41;90017.38;;;1.08;78.83
69909;BME280;57190;47.918;8.112;2023-12-04T12:47:08;90018.41;;;1.07;78.90
69909;BME280;57190;47.918;8.112;2023-12-04T12:49:33;90009.44;;;0.79;79.94
69909;BME280;57190;47.918;8.112;2023-12-04T12:52:01;90017.31;;;0.67;79.85
69909;BME280;57190;47.918;8.112;2023-12-04T12:54:27;90004.28;;;0.60;80.48
69909;BME280;57190;47.918;8.112;2023-12-04T12:56:53;90005.22;;;0.54;80.91
69909;BME280;57190;47.918;8.112;2023-12-04T12:59:18;89998.22;;;0.48;81.05
69909;BME280;57190;47.918;8.112;2023-12-04T13:01:44;89998.22;;;0.48;80.81
69909;BME280;57190;47.918;8.112;2023-12-04T13:04:14;90009.06;;;0.52;80.66